sensor_id;sensor_type;location;lat;lon;timestamp;P1;durP1;ratioP1;P2;durP2;ratioP2
75928;SDS011;64606;44.062;2.986;2023-12-28T00:00:27;8.68;;;6.07;;
75928;SDS011;64606;44.062;2.986;2023-12-28T00:02:53;8.35;;;5.70;;
75928;SDS011;64606;44.062;2.986;2023-12-28T00:05:19;9.23;;;5.13;;
75928;SDS011;64606;44.062;2.986;2023-12-28T00:07:45;9.05;;;5.18;;
75928;SDS011;64606;44.062;2.986;2023-12-28T00:10:12;7.30;;;4.95;;
75928;SDS011;64606;44.062;2.986;2023-12-28T00:12:38;6.97;;;5.28;;
75928;SDS011;64606;44.062;2.986;2023-12-28T00:15:04;8.75;;;5.90;;
75928;SDS011;64606;44.062;2.986;2023-12-28T00:17:30;7.10;;;5.32;;
75928;SDS011;64606;44.062;2.986;2023-12-28T00:19:56;8.32;;;5.60;;
75928;SDS011;64606;44.062;2.986;2023-12-28T00:22:22;7.63;;;5.60;;
75928;SDS011;64606;44.062;2.986;2023-12-28T00:24:48;8.02;;;5.65;;
75928;SDS011;64606;44.062;2.986;2023-12-28T00:27:14;7.40;;;5.70;;
75928;SDS011;64606;44.062;2.986;2023-12-28T00:29:41;7.15;;;4.95;;
75928;SDS011;64606;44.062;2.986;2023-12-28T00:32:08;9.35;;;5.10;;
75928;SDS011;64606;44.062;2.986;2023-12-28T00:34:34;6.50;;;5.00;;
75928;SDS011;64606;44.062;2.986;2023-12-28T00:37:01;6.32;;;4.30;;
75928;SDS011;64606;44.062;2.986;2023-12-28T00:39:27;4.93;;;4.30;;
75928;SDS011;64606;44.062;2.986;2023-12-28T00:41:53;4.50;;;3.95;;
75928;SDS011;64606;44.062;2.986;2023-12-28T00:44:20;5.47;;;4.40;;
75928;SDS011;64606;44.062;2.986;2023-12-28T00:46:46;5.70;;;4.90;;
75928;SDS011;64606;44.062;2.986;2023-12-28T00:49:12;5.28;;;4.00;;
75928;SDS011;64606;44.062;2.986;2023-12-28T00:51:38;6.18;;;4.50;;
75928;SDS011;64606;44.062;2.986;2023-12-28T00:54:04;5.63;;;4.05;;
75928;SDS011;64606;44.062;2.986;2023-12-28T00:56:30;5.32;;;3.92;;
75928;SDS011;64606;44.062;2.986;2023-12-28T00:58:56;5.40;;;4.47;;
75928;SDS011;64606;44.062;2.986;2023-12-28T01:01:22;4.72;;;4.13;;
75928;SDS011;64606;44.062;2.986;2023-12-28T01:03:48;5.80;;;4.13;;
75928;SDS011;64606;44.062;2.986;2023-12-28T01:06:14;4.45;;;3.72;;
75928;SDS011;64606;44.062;2.986;2023-12-28T01:08:41;4.45;;;3.40;;
75928;SDS011;64606;44.062;2.986;2023-12-28T01:11:07;5.20;;;3.88;;
75928;SDS011;64606;44.062;2.986;2023-12-28T01:13:33;4.88;;;3.80;;
75928;SDS011;64606;44.062;2.986;2023-12-28T01:16:01;4.20;;;3.53;;
75928;SDS011;64606;44.062;2.986;2023-12-28T01:18:27;4.03;;;3.33;;
75928;SDS011;64606;44.062;2.986;2023-12-28T01:20:53;4.72;;;3.63;;
75928;SDS011;64606;44.062;2.986;2023-12-28T01:23:19;4.20;;;3.80;;
75928;SDS011;64606;44.062;2.986;2023-12-28T01:25:45;4.47;;;3.50;;
75928;SDS011;64606;44.062;2.986;2023-12-28T01:28:11;3.97;;;3.58;;
75928;SDS011;64606;44.062;2.986;2023-12-28T01:30:37;4.68;;;3.80;;
75928;SDS011;64606;44.062;2.986;2023-12-28T01:33:04;4.15;;;3.38;;
75928;SDS011;64606;44.062;2.986;2023-12-28T01:35:30;3.33;;;3.00;;
75928;SDS011;64606;44.062;2.986;2023-12-28T01:37:56;4.65;;;3.50;;
75928;SDS011;64606;44.062;2.986;2023-12-28T01:40:22;3.42;;;3.13;;
75928;SDS011;64606;44.062;2.986;2023-12-28T01:42:48;5.32;;;3.58;;
75928;SDS011;64606;44.062;2.986;2023-12-28T01:45:14;3.88;;;3.20;;
75928;SDS011;64606;44.062;2.986;2023-12-28T01:47:41;3.72;;;3.25;;
75928;SDS011;64606;44.062;2.986;2023-12-28T01:50:07;3.60;;;3.17;;
75928;SDS011;64606;44.062;2.986;2023-12-28T01:52:33;4.25;;;3.10;;
75928;SDS011;64606;44.062;2.986;2023-12-28T01:55:00;3.70;;;3.33;;
75928;SDS011;64606;44.062;2.986;2023-12-28T01:57:26;3.80;;;3.22;;
75928;SDS011;64606;44.062;2.986;2023-12-28T01:59:52;3.78;;;3.22;;
75928;SDS011;64606;44.062;2.986;2023-12-28T02:02:20;4.55;;;3.10;;
75928;SDS011;64606;44.062;2.986;2023-12-28T02:04:47;3.40;;;2.85;;
75928;SDS011;64606;44.062;2.986;2023-12-28T02:07:13;3.83;;;2.90;;
75928;SDS011;64606;44.062;2.986;2023-12-28T02:09:40;3.47;;;2.63;;
75928;SDS011;64606;44.062;2.986;2023-12-28T02:12:06;3.00;;;2.70;;
75928;SDS011;64606;44.062;2.986;2023-12-28T02:14:33;3.05;;;2.75;;
75928;SDS011;64606;44.062;2.986;2023-12-28T02:17:22;3.15;;;2.88;;
75928;SDS011;64606;44.062;2.986;2023-12-28T02:19:52;3.28;;;2.83;;
75928;SDS011;64606;44.062;2.986;2023-12-28T02:22:19;3.00;;;2.70;;
75928;SDS011;64606;44.062;2.986;2023-12-28T02:27:21;2.92;;;2.60;;
75928;SDS011;64606;44.062;2.986;2023-12-28T02:29:47;3.13;;;2.42;;
75928;SDS011;64606;44.062;2.986;2023-12-28T02:32:13;3.03;;;2.70;;
75928;SDS011;64606;44.062;2.986;2023-12-28T02:34:40;3.03;;;2.72;;
75928;SDS011;64606;44.062;2.986;2023-12-28T02:37:08;2.85;;;2.53;;
75928;SDS011;64606;44.062;2.986;2023-12-28T02:39:35;3.00;;;2.63;;
75928;SDS011;64606;44.062;2.986;2023-12-28T02:42:02;4.07;;;2.58;;
75928;SDS011;64606;44.062;2.986;2023-12-28T02:44:28;2.63;;;2.42;;
75928;SDS011;64606;44.062;2.986;2023-12-28T02:46:54;3.08;;;2.67;;
75928;SDS011;64606;44.062;2.986;2023-12-28T02:49:20;3.30;;;2.45;;
75928;SDS011;64606;44.062;2.986;2023-12-28T02:51:46;3.03;;;2.55;;
75928;SDS011;64606;44.062;2.986;2023-12-28T02:54:12;3.05;;;2.45;;
75928;SDS011;64606;44.062;2.986;2023-12-28T02:56:39;4.07;;;3.00;;
75928;SDS011;64606;44.062;2.986;2023-12-28T02:59:06;3.17;;;2.60;;
75928;SDS011;64606;44.062;2.986;2023-12-28T03:01:32;2.90;;;2.58;;
75928;SDS011;64606;44.062;2.986;2023-12-28T03:03:58;2.65;;;2.45;;
75928;SDS011;64606;44.062;2.986;2023-12-28T03:06:24;2.72;;;2.50;;
75928;SDS011;64606;44.062;2.986;2023-12-28T03:08:50;2.38;;;2.17;;
75928;SDS011;64606;44.062;2.986;2023-12-28T03:11:16;3.03;;;2.58;;
75928;SDS011;64606;44.062;2.986;2023-12-28T03:13:43;2.80;;;2.25;;
75928;SDS011;64606;44.062;2.986;2023-12-28T03:16:09;2.63;;;2.30;;
75928;SDS011;64606;44.062;2.986;2023-12-28T03:18:35;2.28;;;2.08;;
75928;SDS011;64606;44.062;2.986;2023-12-28T03:21:01;3.22;;;2.42;;
75928;SDS011;64606;44.062;2.986;2023-12-28T03:23:27;2.20;;;2.00;;
75928;SDS011;64606;44.062;2.986;2023-12-28T03:25:53;2.33;;;2.13;;
75928;SDS011;64606;44.062;2.986;2023-12-28T03:28:19;2.40;;;2.20;;
75928;SDS011;64606;44.062;2.986;2023-12-28T03:30:46;2.40;;;2.20;;
75928;SDS011;64606;44.062;2.986;2023-12-28T03:33:13;2.58;;;2.38;;
75928;SDS011;64606;44.062;2.986;2023-12-28T03:35:39;2.75;;;2.22;;
75928;SDS011;64606;44.062;2.986;2023-12-28T03:38:05;2.15;;;1.95;;
75928;SDS011;64606;44.062;2.986;2023-12-28T03:40:31;3.15;;;2.53;;
75928;SDS011;64606;44.062;2.986;2023-12-28T03:42:57;2.55;;;2.10;;
75928;SDS011;64606;44.062;2.986;2023-12-28T03:45:23;2.60;;;2.40;;
75928;SDS011;64606;44.062;2.986;2023-12-28T03:47:49;2.65;;;2.35;;
75928;SDS011;64606;44.062;2.986;2023-12-28T03:50:16;2.60;;;2.40;;
75928;SDS011;64606;44.062;2.986;2023-12-28T03:52:42;2.63;;;2.42;;
75928;SDS011;64606;44.062;2.986;2023-12-28T03:55:08;2.15;;;1.95;;
75928;SDS011;64606;44.062;2.986;2023-12-28T03:57:34;2.28;;;2.08;;
75928;SDS011;64606;44.062;2.986;2023-12-28T04:00:00;2.00;;;1.90;;
75928;SDS011;64606;44.062;2.986;2023-12-28T04:02:26;2.28;;;2.08;;
75928;SDS011;64606;44.062;2.986;2023-12-28T04:04:56;2.30;;;2.10;;
75928;SDS011;64606;44.062;2.986;2023-12-28T04:07:23;2.55;;;2.00;;
75928;SDS011;64606;44.062;2.986;2023-12-28T04:09:50;2.40;;;2.20;;
75928;SDS011;64606;44.062;2.986;2023-12-28T04:12:16;2.50;;;2.30;;
75928;SDS011;64606;44.062;2.986;2023-12-28T04:14:42;2.20;;;2.00;;
75928;SDS011;64606;44.062;2.986;2023-12-28T04:17:08;2.00;;;1.80;;
75928;SDS011;64606;44.062;2.986;2023-12-28T04:19:34;2.30;;;2.10;;
75928;SDS011;64606;44.062;2.986;2023-12-28T04:22:00;2.13;;;1.92;;
75928;SDS011;64606;44.062;2.986;2023-12-28T04:24:26;1.70;;;1.60;;
75928;SDS011;64606;44.062;2.986;2023-12-28T04:26:52;2.45;;;2.22;;
75928;SDS011;64606;44.062;2.986;2023-12-28T04:29:19;2.13;;;1.90;;
75928;SDS011;64606;44.062;2.986;2023-12-28T04:31:46;2.65;;;2.10;;
75928;SDS011;64606;44.062;2.986;2023-12-28T04:34:12;3.03;;;1.83;;
75928;SDS011;64606;44.062;2.986;2023-12-28T04:36:44;2.65;;;2.15;;
75928;SDS011;64606;44.062;2.986;2023-12-28T04:39:12;2.90;;;2.60;;
75928;SDS011;64606;44.062;2.986;2023-12-28T04:41:38;3.30;;;2.80;;
75928;SDS011;64606;44.062;2.986;2023-12-28T04:44:04;3.05;;;2.72;;
75928;SDS011;64606;44.062;2.986;2023-12-28T04:46:30;4.28;;;2.67;;
75928;SDS011;64606;44.062;2.986;2023-12-28T04:48:56;3.33;;;3.00;;
75928;SDS011;64606;44.062;2.986;2023-12-28T04:51:22;2.67;;;2.45;;
75928;SDS011;64606;44.062;2.986;2023-12-28T04:53:49;3.33;;;2.92;;
75928;SDS011;64606;44.062;2.986;2023-12-28T04:56:18;3.78;;;2.85;;
75928;SDS011;64606;44.062;2.986;2023-12-28T04:58:45;3.35;;;3.05;;
75928;SDS011;64606;44.062;2.986;2023-12-28T05:01:11;3.42;;;3.00;;
75928;SDS011;64606;44.062;2.986;2023-12-28T05:03:37;4.25;;;3.08;;
75928;SDS011;64606;44.062;2.986;2023-12-28T05:06:04;3.40;;;2.90;;
75928;SDS011;64606;44.062;2.986;2023-12-28T05:08:30;3.25;;;2.83;;
75928;SDS011;64606;44.062;2.986;2023-12-28T05:10:56;5.25;;;2.85;;
75928;SDS011;64606;44.062;2.986;2023-12-28T05:13:22;3.63;;;2.90;;
75928;SDS011;64606;44.062;2.986;2023-12-28T05:15:48;2.50;;;2.20;;
75928;SDS011;64606;44.062;2.986;2023-12-28T05:18:14;4.22;;;2.47;;
75928;SDS011;64606;44.062;2.986;2023-12-28T05:20:40;3.03;;;2.47;;
75928;SDS011;64606;44.062;2.986;2023-12-28T05:23:06;2.47;;;2.28;;
75928;SDS011;64606;44.062;2.986;2023-12-28T05:25:33;2.80;;;2.53;;
75928;SDS011;64606;44.062;2.986;2023-12-28T05:27:59;3.60;;;2.47;;
75928;SDS011;64606;44.062;2.986;2023-12-28T05:30:25;2.90;;;2.60;;
75928;SDS011;64606;44.062;2.986;2023-12-28T05:32:51;3.35;;;2.45;;
75928;SDS011;64606;44.062;2.986;2023-12-28T05:35:17;3.30;;;2.50;;
75928;SDS011;64606;44.062;2.986;2023-12-28T05:37:43;4.05;;;2.15;;
75928;SDS011;64606;44.062;2.986;2023-12-28T05:40:10;3.20;;;2.33;;
75928;SDS011;64606;44.062;2.986;2023-12-28T05:42:36;2.50;;;2.25;;
75928;SDS011;64606;44.062;2.986;2023-12-28T05:45:02;2.60;;;2.35;;
75928;SDS011;64606;44.062;2.986;2023-12-28T05:47:28;2.38;;;2.17;;
75928;SDS011;64606;44.062;2.986;2023-12-28T05:49:54;2.53;;;2.10;;
75928;SDS011;64606;44.062;2.986;2023-12-28T05:52:21;2.50;;;2.25;;
75928;SDS011;64606;44.062;2.986;2023-12-28T05:54:47;2.65;;;2.22;;
75928;SDS011;64606;44.062;2.986;2023-12-28T05:57:13;2.42;;;2.22;;
75928;SDS011;64606;44.062;2.986;2023-12-28T05:59:39;2.90;;;2.50;;
75928;SDS011;64606;44.062;2.986;2023-12-28T06:02:05;2.30;;;2.10;;
75928;SDS011;64606;44.062;2.986;2023-12-28T06:04:32;2.30;;;2.10;;
75928;SDS011;64606;44.062;2.986;2023-12-28T06:07:00;2.40;;;2.20;;
75928;SDS011;64606;44.062;2.986;2023-12-28T06:09:27;2.47;;;2.28;;
75928;SDS011;64606;44.062;2.986;2023-12-28T06:11:53;2.60;;;2.40;;
75928;SDS011;64606;44.062;2.986;2023-12-28T06:14:20;2.47;;;2.28;;
75928;SDS011;64606;44.062;2.986;2023-12-28T06:16:46;3.22;;;2.53;;
75928;SDS011;64606;44.062;2.986;2023-12-28T06:19:12;2.67;;;2.45;;
75928;SDS011;64606;44.062;2.986;2023-12-28T06:21:38;2.78;;;2.58;;
75928;SDS011;64606;44.062;2.986;2023-12-28T06:24:04;2.40;;;2.20;;
75928;SDS011;64606;44.062;2.986;2023-12-28T06:26:30;2.75;;;2.55;;
75928;SDS011;64606;44.062;2.986;2023-12-28T06:28:56;2.80;;;2.60;;
75928;SDS011;64606;44.062;2.986;2023-12-28T06:31:22;2.83;;;2.55;;
75928;SDS011;64606;44.062;2.986;2023-12-28T06:33:48;2.90;;;2.55;;
75928;SDS011;64606;44.062;2.986;2023-12-28T06:36:16;2.80;;;2.50;;
75928;SDS011;64606;44.062;2.986;2023-12-28T06:38:43;2.95;;;2.50;;
75928;SDS011;64606;44.062;2.986;2023-12-28T06:41:12;2.85;;;2.30;;
75928;SDS011;64606;44.062;2.986;2023-12-28T06:43:39;2.50;;;2.25;;
75928;SDS011;64606;44.062;2.986;2023-12-28T06:46:05;2.80;;;2.25;;
75928;SDS011;64606;44.062;2.986;2023-12-28T06:48:31;2.80;;;2.53;;
75928;SDS011;64606;44.062;2.986;2023-12-28T06:50:58;2.92;;;2.22;;
75928;SDS011;64606;44.062;2.986;2023-12-28T06:53:25;2.33;;;2.13;;
75928;SDS011;64606;44.062;2.986;2023-12-28T06:55:51;2.63;;;2.30;;
75928;SDS011;64606;44.062;2.986;2023-12-28T06:58:17;2.53;;;2.33;;
75928;SDS011;64606;44.062;2.986;2023-12-28T07:00:43;3.35;;;2.30;;
75928;SDS011;64606;44.062;2.986;2023-12-28T07:03:09;4.03;;;2.55;;
75928;SDS011;64606;44.062;2.986;2023-12-28T07:05:36;2.95;;;2.15;;
75928;SDS011;64606;44.062;2.986;2023-12-28T07:08:02;3.30;;;2.60;;
75928;SDS011;64606;44.062;2.986;2023-12-28T07:10:28;2.97;;;2.38;;
75928;SDS011;64606;44.062;2.986;2023-12-28T07:12:54;3.35;;;2.65;;
75928;SDS011;64606;44.062;2.986;2023-12-28T07:15:20;3.13;;;2.67;;
75928;SDS011;64606;44.062;2.986;2023-12-28T07:17:46;4.47;;;2.80;;
75928;SDS011;64606;44.062;2.986;2023-12-28T07:20:12;3.55;;;2.30;;
75928;SDS011;64606;44.062;2.986;2023-12-28T07:22:38;2.97;;;2.58;;
75928;SDS011;64606;44.062;2.986;2023-12-28T07:25:05;3.47;;;2.90;;
75928;SDS011;64606;44.062;2.986;2023-12-28T07:27:34;4.97;;;3.00;;
75928;SDS011;64606;44.062;2.986;2023-12-28T07:30:01;4.38;;;2.28;;
75928;SDS011;64606;44.062;2.986;2023-12-28T07:32:31;3.22;;;2.50;;
75928;SDS011;64606;44.062;2.986;2023-12-28T07:34:57;3.25;;;2.30;;
75928;SDS011;64606;44.062;2.986;2023-12-28T07:37:24;2.40;;;2.20;;
75928;SDS011;64606;44.062;2.986;2023-12-28T07:39:50;3.80;;;2.50;;
75928;SDS011;64606;44.062;2.986;2023-12-28T07:42:16;4.25;;;2.58;;
75928;SDS011;64606;44.062;2.986;2023-12-28T07:44:43;2.47;;;2.20;;
75928;SDS011;64606;44.062;2.986;2023-12-28T07:47:09;2.58;;;2.33;;
75928;SDS011;64606;44.062;2.986;2023-12-28T07:49:36;5.72;;;2.47;;
75928;SDS011;64606;44.062;2.986;2023-12-28T07:52:02;4.22;;;2.47;;
75928;SDS011;64606;44.062;2.986;2023-12-28T07:54:29;5.00;;;2.20;;
75928;SDS011;64606;44.062;2.986;2023-12-28T07:56:55;3.60;;;2.50;;
75928;SDS011;64606;44.062;2.986;2023-12-28T07:59:21;3.88;;;2.28;;
75928;SDS011;64606;44.062;2.986;2023-12-28T08:01:47;4.38;;;2.63;;
75928;SDS011;64606;44.062;2.986;2023-12-28T08:04:13;2.65;;;2.45;;
75928;SDS011;64606;44.062;2.986;2023-12-28T08:06:39;3.75;;;2.60;;
75928;SDS011;64606;44.062;2.986;2023-12-28T08:09:06;4.25;;;2.70;;
75928;SDS011;64606;44.062;2.986;2023-12-28T08:11:32;3.50;;;2.83;;
75928;SDS011;64606;44.062;2.986;2023-12-28T08:13:58;4.03;;;2.65;;
75928;SDS011;64606;44.062;2.986;2023-12-28T08:16:24;2.53;;;2.33;;
75928;SDS011;64606;44.062;2.986;2023-12-28T08:18:51;3.30;;;2.80;;
75928;SDS011;64606;44.062;2.986;2023-12-28T08:21:17;4.20;;;2.88;;
75928;SDS011;64606;44.062;2.986;2023-12-28T08:23:43;5.22;;;2.63;;
75928;SDS011;64606;44.062;2.986;2023-12-28T08:26:10;3.47;;;2.97;;
75928;SDS011;64606;44.062;2.986;2023-12-28T08:28:36;5.60;;;2.83;;
75928;SDS011;64606;44.062;2.986;2023-12-28T08:31:02;3.80;;;2.63;;
75928;SDS011;64606;44.062;2.986;2023-12-28T08:33:28;3.22;;;2.75;;
75928;SDS011;64606;44.062;2.986;2023-12-28T08:35:54;3.50;;;2.75;;
75928;SDS011;64606;44.062;2.986;2023-12-28T08:38:20;3.75;;;2.58;;
75928;SDS011;64606;44.062;2.986;2023-12-28T08:40:47;4.00;;;2.63;;
75928;SDS011;64606;44.062;2.986;2023-12-28T08:43:13;2.45;;;2.17;;
75928;SDS011;64606;44.062;2.986;2023-12-28T08:45:39;3.25;;;2.72;;
75928;SDS011;64606;44.062;2.986;2023-12-28T08:48:05;3.78;;;2.83;;
75928;SDS011;64606;44.062;2.986;2023-12-28T08:50:31;4.35;;;2.90;;
75928;SDS011;64606;44.062;2.986;2023-12-28T08:52:58;4.97;;;3.10;;
75928;SDS011;64606;44.062;2.986;2023-12-28T08:55:24;3.10;;;2.58;;
75928;SDS011;64606;44.062;2.986;2023-12-28T08:57:50;3.20;;;2.42;;
75928;SDS011;64606;44.062;2.986;2023-12-28T09:00:16;4.30;;;2.58;;
75928;SDS011;64606;44.062;2.986;2023-12-28T09:02:43;3.25;;;2.50;;
75928;SDS011;64606;44.062;2.986;2023-12-28T09:05:09;4.28;;;2.88;;
75928;SDS011;64606;44.062;2.986;2023-12-28T09:07:35;3.05;;;2.58;;
75928;SDS011;64606;44.062;2.986;2023-12-28T09:10:08;2.75;;;2.50;;
75928;SDS011;64606;44.062;2.986;2023-12-28T09:12:35;2.70;;;2.40;;
75928;SDS011;64606;44.062;2.986;2023-12-28T09:15:01;3.25;;;2.63;;
75928;SDS011;64606;44.062;2.986;2023-12-28T09:17:27;3.75;;;2.40;;
75928;SDS011;64606;44.062;2.986;2023-12-28T09:19:54;3.45;;;2.50;;
75928;SDS011;64606;44.062;2.986;2023-12-28T09:22:20;3.15;;;2.70;;
75928;SDS011;64606;44.062;2.986;2023-12-28T09:24:46;3.45;;;2.65;;
75928;SDS011;64606;44.062;2.986;2023-12-28T09:27:12;3.20;;;2.80;;
75928;SDS011;64606;44.062;2.986;2023-12-28T09:29:38;3.33;;;2.85;;
75928;SDS011;64606;44.062;2.986;2023-12-28T09:32:04;2.70;;;2.50;;
75928;SDS011;64606;44.062;2.986;2023-12-28T09:34:30;2.60;;;2.30;;
75928;SDS011;64606;44.062;2.986;2023-12-28T09:36:57;3.33;;;2.80;;
75928;SDS011;64606;44.062;2.986;2023-12-28T09:39:23;3.30;;;2.70;;
75928;SDS011;64606;44.062;2.986;2023-12-28T09:41:51;2.92;;;2.58;;
75928;SDS011;64606;44.062;2.986;2023-12-28T09:44:20;2.50;;;2.30;;
75928;SDS011;64606;44.062;2.986;2023-12-28T09:46:47;2.60;;;2.22;;
75928;SDS011;64606;44.062;2.986;2023-12-28T09:49:13;2.70;;;2.50;;
75928;SDS011;64606;44.062;2.986;2023-12-28T09:51:39;3.15;;;2.60;;
75928;SDS011;64606;44.062;2.986;2023-12-28T09:54:05;2.63;;;2.08;;
75928;SDS011;64606;44.062;2.986;2023-12-28T09:56:32;2.60;;;2.10;;
75928;SDS011;64606;44.062;2.986;2023-12-28T09:58:58;2.67;;;2.30;;
75928;SDS011;64606;44.062;2.986;2023-12-28T10:01:24;2.42;;;2.22;;
75928;SDS011;64606;44.062;2.986;2023-12-28T10:03:51;3.03;;;2.20;;
75928;SDS011;64606;44.062;2.986;2023-12-28T10:06:17;3.17;;;2.35;;
75928;SDS011;64606;44.062;2.986;2023-12-28T10:08:46;2.70;;;2.38;;
75928;SDS011;64606;44.062;2.986;2023-12-28T10:11:14;3.20;;;2.20;;
75928;SDS011;64606;44.062;2.986;2023-12-28T10:13:41;2.63;;;2.20;;
75928;SDS011;64606;44.062;2.986;2023-12-28T10:16:09;3.35;;;2.50;;
75928;SDS011;64606;44.062;2.986;2023-12-28T10:18:36;4.18;;;2.58;;
75928;SDS011;64606;44.062;2.986;2023-12-28T10:21:02;2.80;;;2.38;;
75928;SDS011;64606;44.062;2.986;2023-12-28T10:23:28;3.53;;;2.38;;
75928;SDS011;64606;44.062;2.986;2023-12-28T10:25:55;2.63;;;2.38;;
75928;SDS011;64606;44.062;2.986;2023-12-28T10:28:22;2.63;;;2.40;;
75928;SDS011;64606;44.062;2.986;2023-12-28T10:30:53;2.40;;;2.05;;
75928;SDS011;64606;44.062;2.986;2023-12-28T10:33:20;2.97;;;2.50;;
75928;SDS011;64606;44.062;2.986;2023-12-28T10:35:46;2.80;;;2.58;;
75928;SDS011;64606;44.062;2.986;2023-12-28T10:38:13;3.03;;;2.53;;
75928;SDS011;64606;44.062;2.986;2023-12-28T10:40:41;2.38;;;2.17;;
75928;SDS011;64606;44.062;2.986;2023-12-28T10:43:08;2.55;;;2.20;;
75928;SDS011;64606;44.062;2.986;2023-12-28T10:45:37;2.50;;;2.05;;
75928;SDS011;64606;44.062;2.986;2023-12-28T10:48:09;2.30;;;2.10;;
75928;SDS011;64606;44.062;2.986;2023-12-28T10:50:42;3.55;;;2.40;;
75928;SDS011;64606;44.062;2.986;2023-12-28T10:53:19;2.28;;;2.08;;
75928;SDS011;64606;44.062;2.986;2023-12-28T10:58:24;2.40;;;2.10;;
75928;SDS011;64606;44.062;2.986;2023-12-28T11:00:53;2.58;;;2.08;;
75928;SDS011;64606;44.062;2.986;2023-12-28T11:03:22;4.90;;;2.28;;
75928;SDS011;64606;44.062;2.986;2023-12-28T11:05:49;2.60;;;2.20;;
75928;SDS011;64606;44.062;2.986;2023-12-28T11:08:16;2.72;;;1.98;;
75928;SDS011;64606;44.062;2.986;2023-12-28T11:10:43;2.47;;;1.90;;
75928;SDS011;64606;44.062;2.986;2023-12-28T11:13:09;3.67;;;1.88;;
75928;SDS011;64606;44.062;2.986;2023-12-28T11:15:36;2.92;;;1.90;;
75928;SDS011;64606;44.062;2.986;2023-12-28T11:18:04;3.45;;;2.00;;
75928;SDS011;64606;44.062;2.986;2023-12-28T11:20:30;2.60;;;2.03;;
75928;SDS011;64606;44.062;2.986;2023-12-28T11:22:56;2.53;;;1.92;;
75928;SDS011;64606;44.062;2.986;2023-12-28T11:25:24;3.50;;;1.77;;
75928;SDS011;64606;44.062;2.986;2023-12-28T11:27:56;4.22;;;2.10;;
75928;SDS011;64606;44.062;2.986;2023-12-28T11:30:25;2.90;;;1.60;;
75928;SDS011;64606;44.062;2.986;2023-12-28T11:32:55;2.53;;;2.08;;
75928;SDS011;64606;44.062;2.986;2023-12-28T11:35:22;2.47;;;2.20;;
75928;SDS011;64606;44.062;2.986;2023-12-28T11:37:48;1.95;;;1.80;;
75928;SDS011;64606;44.062;2.986;2023-12-28T11:40:17;2.38;;;1.77;;
75928;SDS011;64606;44.062;2.986;2023-12-28T11:42:47;4.43;;;2.20;;
75928;SDS011;64606;44.062;2.986;2023-12-28T11:45:14;3.22;;;2.17;;
75928;SDS011;64606;44.062;2.986;2023-12-28T11:47:41;3.53;;;2.20;;
75928;SDS011;64606;44.062;2.986;2023-12-28T11:50:08;5.07;;;2.08;;
75928;SDS011;64606;44.062;2.986;2023-12-28T11:52:34;5.28;;;2.13;;
75928;SDS011;64606;44.062;2.986;2023-12-28T11:55:00;5.88;;;2.00;;
75928;SDS011;64606;44.062;2.986;2023-12-28T11:57:26;3.78;;;2.13;;
75928;SDS011;64606;44.062;2.986;2023-12-28T11:59:54;3.55;;;1.88;;
75928;SDS011;64606;44.062;2.986;2023-12-28T12:02:20;4.07;;;2.15;;
75928;SDS011;64606;44.062;2.986;2023-12-28T12:04:47;3.65;;;1.80;;
75928;SDS011;64606;44.062;2.986;2023-12-28T12:07:13;3.22;;;1.60;;
75928;SDS011;64606;44.062;2.986;2023-12-28T12:09:39;3.78;;;1.75;;
75928;SDS011;64606;44.062;2.986;2023-12-28T12:12:06;2.88;;;1.75;;
75928;SDS011;64606;44.062;2.986;2023-12-28T12:14:32;2.40;;;1.50;;
75928;SDS011;64606;44.062;2.986;2023-12-28T12:17:00;2.03;;;1.50;;
75928;SDS011;64606;44.062;2.986;2023-12-28T12:19:26;2.75;;;1.50;;
75928;SDS011;64606;44.062;2.986;2023-12-28T12:21:53;2.00;;;1.50;;
75928;SDS011;64606;44.062;2.986;2023-12-28T12:24:20;4.65;;;2.00;;
75928;SDS011;64606;44.062;2.986;2023-12-28T12:26:46;1.77;;;1.35;;
75928;SDS011;64606;44.062;2.986;2023-12-28T12:29:15;1.55;;;1.33;;
75928;SDS011;64606;44.062;2.986;2023-12-28T12:31:42;2.78;;;1.70;;
75928;SDS011;64606;44.062;2.986;2023-12-28T12:34:09;3.80;;;1.65;;
75928;SDS011;64606;44.062;2.986;2023-12-28T12:36:35;2.20;;;1.58;;
75928;SDS011;64606;44.062;2.986;2023-12-28T12:39:01;2.47;;;1.40;;
75928;SDS011;64606;44.062;2.986;2023-12-28T12:41:32;5.97;;;1.67;;
75928;SDS011;64606;44.062;2.986;2023-12-28T12:43:58;2.30;;;1.50;;
75928;SDS011;64606;44.062;2.986;2023-12-28T12:46:25;1.98;;;1.40;;
75928;SDS011;64606;44.062;2.986;2023-12-28T12:48:58;3.20;;;1.77;;
75928;SDS011;64606;44.062;2.986;2023-12-28T12:51:27;3.95;;;2.40;;
75928;SDS011;64606;44.062;2.986;2023-12-28T12:53:57;3.78;;;2.10;;
75928;SDS011;64606;44.062;2.986;2023-12-28T12:56:23;4.47;;;2.13;;
75928;SDS011;64606;44.062;2.986;2023-12-28T12:58:49;3.17;;;1.73;;
75928;SDS011;64606;44.062;2.986;2023-12-28T13:01:15;2.67;;;1.73;;
75928;SDS011;64606;44.062;2.986;2023-12-28T13:03:42;2.33;;;1.80;;
75928;SDS011;64606;44.062;2.986;2023-12-28T13:06:08;2.85;;;1.60;;
75928;SDS011;64606;44.062;2.986;2023-12-28T13:08:34;1.52;;;1.42;;
75928;SDS011;64606;44.062;2.986;2023-12-28T13:11:00;3.15;;;1.70;;
75928;SDS011;64606;44.062;2.986;2023-12-28T13:13:26;5.10;;;1.58;;
75928;SDS011;64606;44.062;2.986;2023-12-28T13:15:52;17.40;;;2.00;;
75928;SDS011;64606;44.062;2.986;2023-12-28T13:18:18;23.17;;;3.00;;
75928;SDS011;64606;44.062;2.986;2023-12-28T13:20:46;25.13;;;2.78;;
75928;SDS011;64606;44.062;2.986;2023-12-28T13:23:12;14.93;;;2.60;;
75928;SDS011;64606;44.062;2.986;2023-12-28T13:25:38;27.70;;;3.00;;
75928;SDS011;64606;44.062;2.986;2023-12-28T13:28:05;22.58;;;3.35;;
75928;SDS011;64606;44.062;2.986;2023-12-28T13:30:31;18.80;;;2.72;;
75928;SDS011;64606;44.062;2.986;2023-12-28T13:32:57;17.38;;;2.83;;
75928;SDS011;64606;44.062;2.986;2023-12-28T13:35:24;9.60;;;2.70;;
75928;SDS011;64606;44.062;2.986;2023-12-28T13:37:50;9.45;;;2.30;;
75928;SDS011;64606;44.062;2.986;2023-12-28T13:40:16;11.27;;;2.75;;
75928;SDS011;64606;44.062;2.986;2023-12-28T13:42:42;8.98;;;2.20;;
75928;SDS011;64606;44.062;2.986;2023-12-28T13:45:08;7.15;;;2.20;;
75928;SDS011;64606;44.062;2.986;2023-12-28T13:47:34;8.73;;;2.40;;
75928;SDS011;64606;44.062;2.986;2023-12-28T13:50:01;9.25;;;2.40;;
75928;SDS011;64606;44.062;2.986;2023-12-28T13:52:27;8.50;;;2.28;;
75928;SDS011;64606;44.062;2.986;2023-12-28T13:54:53;7.28;;;2.17;;
75928;SDS011;64606;44.062;2.986;2023-12-28T13:57:20;8.70;;;2.40;;
75928;SDS011;64606;44.062;2.986;2023-12-28T13:59:46;7.55;;;3.50;;
75928;SDS011;64606;44.062;2.986;2023-12-28T14:02:12;8.32;;;4.05;;
75928;SDS011;64606;44.062;2.986;2023-12-28T14:04:38;7.90;;;4.72;;
75928;SDS011;64606;44.062;2.986;2023-12-28T14:07:04;11.15;;;5.32;;
75928;SDS011;64606;44.062;2.986;2023-12-28T14:09:30;10.95;;;7.25;;
75928;SDS011;64606;44.062;2.986;2023-12-28T14:11:58;12.38;;;8.93;;
75928;SDS011;64606;44.062;2.986;2023-12-28T14:14:24;17.20;;;10.73;;
75928;SDS011;64606;44.062;2.986;2023-12-28T14:16:50;21.83;;;14.70;;
75928;SDS011;64606;44.062;2.986;2023-12-28T14:19:16;20.13;;;15.35;;
75928;SDS011;64606;44.062;2.986;2023-12-28T14:21:42;23.27;;;16.02;;
75928;SDS011;64606;44.062;2.986;2023-12-28T14:24:09;22.60;;;17.73;;
75928;SDS011;64606;44.062;2.986;2023-12-28T14:26:37;21.23;;;17.85;;
75928;SDS011;64606;44.062;2.986;2023-12-28T14:29:07;27.98;;;19.90;;
75928;SDS011;64606;44.062;2.986;2023-12-28T14:31:33;29.02;;;21.30;;
75928;SDS011;64606;44.062;2.986;2023-12-28T14:34:00;27.23;;;20.83;;
75928;SDS011;64606;44.062;2.986;2023-12-28T14:36:31;25.50;;;20.95;;
75928;SDS011;64606;44.062;2.986;2023-12-28T14:39:03;29.50;;;22.20;;
75928;SDS011;64606;44.062;2.986;2023-12-28T14:41:35;27.27;;;22.40;;
75928;SDS011;64606;44.062;2.986;2023-12-28T14:44:01;26.00;;;22.15;;
75928;SDS011;64606;44.062;2.986;2023-12-28T14:46:28;27.10;;;23.05;;